Time;durP1;ratioP1;P1;durP2;ratioP2;P2;SDS_P1;SDS_P2;PMS_P1;PMS_P2;Temp;Humidity;BMP_temperature;BMP_pressure;BME280_temperature;BME280_humidity;BME280_pressure;Samples;Min_cycle;Max_cycle;Signal;HPM_P1;HPM_P2
2023/12/28 00:00:47;;;;;;;16.27;14.57;;;;;;;;;;5047448;28;20033;-51
2023/12/28 00:03:13;;;;;;;16.60;14.90;;;;;;;;;;5047705;28;20033;-53
2023/12/28 00:05:40;;;;;;;16.20;14.50;;;;;;;;;;5047593;28;20112;-50
2023/12/28 00:08:06;;;;;;;15.27;13.40;;;;;;;;;;5047318;28;20028;-50
2023/12/28 00:10:32;;;;;;;14.60;11.80;;;;;;;;;;5047418;28;20563;-49
2023/12/28 00:12:58;;;;;;;15.63;11.30;;;;;;;;;;5047023;28;20025;-51
2023/12/28 00:15:24;;;;;;;14.00;10.00;;;;;;;;;;5027017;28;20494;-51
2023/12/28 00:17:50;;;;;;;13.80;9.40;;;;;;;;;;5036033;28;20029;-47
2023/12/28 00:20:16;;;;;;;14.20;9.90;;;;;;;;;;5047579;28;20017;-53
2023/12/28 00:22:42;;;;;;;14.05;10.00;;;;;;;;;;5026529;28;20495;-49
2023/12/28 00:25:08;;;;;;;14.05;10.07;;;;;;;;;;5046683;28;20099;-50
2023/12/28 00:27:37;;;;;;;14.10;10.27;;;;;;;;;;5047566;28;20025;-49
2023/12/28 00:30:03;;;;;;;;;;;;;;;;;;5047838;28;20024;-51
2023/12/28 00:32:29;;;;;;;13.88;9.60;;;;;;;;;;5047432;28;19966;-51
2023/12/28 00:34:55;;;;;;;13.90;9.55;;;;;;;;;;5047330;28;20351;-54
2023/12/28 00:37:21;;;;;;;13.82;9.25;;;;;;;;;;5052146;28;20055;-49
2023/12/28 00:39:49;;;;;;;13.80;9.40;;;;;;;;;;5051133;28;20455;-48
2023/12/28 00:42:15;;;;;;;13.57;8.68;;;;;;;;;;5036112;28;20174;-53
2023/12/28 00:44:41;;;;;;;13.55;8.60;;;;;;;;;;5054541;23;20139;-48
2023/12/28 00:47:07;;;;;;;13.40;8.10;;;;;;;;;;5030872;28;20037;-48
2023/12/28 00:49:33;;;;;;;14.00;8.85;;;;;;;;;;5047595;28;20021;-51
2023/12/28 00:51:59;;;;;;;13.00;7.63;;;;;;;;;;5048236;28;20036;-45
2023/12/28 00:54:25;;;;;;;14.20;8.50;;;;;;;;;;5048717;28;20025;-46
2023/12/28 00:56:51;;;;;;;12.43;7.28;;;;;;;;;;5030805;28;20112;-46
2023/12/28 00:59:17;;;;;;;12.27;7.20;;;;;;;;;;5049032;28;20025;-48
2023/12/28 01:01:43;;;;;;;12.02;7.10;;;;;;;;;;5048489;28;20052;-46
2023/12/28 01:04:09;;;;;;;11.70;6.80;;;;;;;;;;5031419;28;20068;-48
2023/12/28 01:06:35;;;;;;;11.40;6.93;;;;;;;;;;5049310;28;20403;-47
2023/12/28 01:09:01;;;;;;;10.95;6.40;;;;;;;;;;5049550;28;20021;-47
2023/12/28 01:11:27;;;;;;;10.85;6.60;;;;;;;;;;5048877;28;20031;-46
2023/12/28 01:13:54;;;;;;;9.57;5.60;;;;;;;;;;5048926;28;20528;-46
2023/12/28 01:16:20;;;;;;;8.82;5.13;;;;;;;;;;5049126;28;20448;-45
2023/12/28 01:18:46;;;;;;;9.10;5.15;;;;;;;;;;5049237;28;20422;-49
2023/12/28 01:21:12;;;;;;;7.78;4.60;;;;;;;;;;5049034;28;20103;-44
2023/12/28 01:23:38;;;;;;;9.23;5.70;;;;;;;;;;5049387;28;20029;-45
2023/12/28 01:26:04;;;;;;;9.05;5.05;;;;;;;;;;5049022;28;20041;-47
2023/12/28 01:28:30;;;;;;;7.85;4.65;;;;;;;;;;5049032;28;20032;-45
2023/12/28 01:30:56;;;;;;;8.38;4.85;;;;;;;;;;5051072;28;20025;-52
2023/12/28 01:33:22;;;;;;;8.05;4.80;;;;;;;;;;5046962;28;20025;-47
2023/12/28 01:35:48;;;;;;;8.60;5.10;;;;;;;;;;5043998;28;20033;-49
2023/12/28 01:38:14;;;;;;;8.38;4.90;;;;;;;;;;5032279;28;20124;-49
2023/12/28 01:40:44;;;;;;;8.05;4.80;;;;;;;;;;5031956;28;20061;-49
2023/12/28 01:43:10;;;;;;;8.30;4.90;;;;;;;;;;4994506;28;1075667;-47
2023/12/28 01:45:36;;;;;;;8.32;4.93;;;;;;;;;;5033004;28;20025;-48
2023/12/28 01:48:03;;;;;;;8.32;4.93;;;;;;;;;;5032966;28;20024;-49
2023/12/28 01:50:29;;;;;;;9.48;5.38;;;;;;;;;;5032900;28;20032;-46
2023/12/28 01:52:57;;;;;;;8.10;4.80;;;;;;;;;;5033330;28;20104;-48
2023/12/28 01:55:23;;;;;;;8.30;5.00;;;;;;;;;;5040580;28;20028;-48
2023/12/28 01:57:49;;;;;;;8.23;4.88;;;;;;;;;;5033029;28;20033;-49
2023/12/28 02:00:15;;;;;;;9.85;5.18;;;;;;;;;;5032974;28;20018;-46
2023/12/28 02:02:41;;;;;;;8.25;4.88;;;;;;;;;;5031038;28;20108;-48
2023/12/28 02:05:08;;;;;;;7.90;4.70;;;;;;;;;;5031838;28;20034;-50
2023/12/28 02:07:36;;;;;;;9.13;5.03;;;;;;;;;;5040782;28;20029;-50
2023/12/28 02:10:02;;;;;;;8.02;4.78;;;;;;;;;;5050827;28;20025;-49
2023/12/28 02:12:28;;;;;;;7.97;4.70;;;;;;;;;;5052462;28;20079;-46
2023/12/28 02:14:54;;;;;;;8.07;4.80;;;;;;;;;;5052797;28;20096;-47
2023/12/28 02:17:30;;;;;;;8.30;4.90;;;;;;;;;;5034740;28;20112;-46
2023/12/28 02:19:58;;;;;;;7.50;4.53;;;;;;;;;;5052592;28;20048;-53
2023/12/28 02:22:25;;;;;;;7.28;4.35;;;;;;;;;;5052576;28;20025;-46
2023/12/28 02:25:03;;;;;;;7.50;4.40;;;;;;;;;;5052960;28;20207;-47
2023/12/28 02:27:29;;;;;;;7.20;4.30;;;;;;;;;;5052804;28;20452;-45
2023/12/28 02:29:56;;;;;;;7.50;4.43;;;;;;;;;;5052528;28;20029;-52
2023/12/28 02:32:25;;;;;;;7.50;4.50;;;;;;;;;;5034414;28;20025;-46
2023/12/28 02:34:54;;;;;;;7.68;4.57;;;;;;;;;;5052461;28;20055;-49
2023/12/28 02:37:21;;;;;;;8.75;4.93;;;;;;;;;;5052315;28;20025;-48
2023/12/28 02:39:47;;;;;;;8.20;4.85;;;;;;;;;;5052284;28;20029;-47
2023/12/28 02:42:13;;;;;;;8.68;5.00;;;;;;;;;;5033231;28;20040;-49
2023/12/28 02:44:39;;;;;;;8.38;4.80;;;;;;;;;;5052026;28;20041;-52
2023/12/28 02:47:05;;;;;;;7.68;4.60;;;;;;;;;;5034497;28;20039;-51
2023/12/28 02:49:31;;;;;;;8.00;4.70;;;;;;;;;;5052225;28;20475;-50
2023/12/28 02:51:57;;;;;;;25.48;11.48;;;;;;;;;;5034328;28;20044;-51
2023/12/28 02:54:23;;;;;;;8.02;4.72;;;;;;;;;;5052317;28;20017;-46
2023/12/28 02:56:49;;;;;;;8.43;5.38;;;;;;;;;;5052288;28;20611;-47
2023/12/28 02:59:15;;;;;;;8.57;5.00;;;;;;;;;;5051978;28;20051;-49
2023/12/28 03:01:41;;;;;;;8.18;4.80;;;;;;;;;;5033859;28;20032;-48
2023/12/28 03:04:09;;;;;;;8.13;4.80;;;;;;;;;;5033837;28;20052;-43
2023/12/28 03:06:35;;;;;;;7.43;4.43;;;;;;;;;;5051290;28;20769;-49
2023/12/28 03:09:01;;;;;;;8.43;4.50;;;;;;;;;;5051684;28;20044;-46
2023/12/28 03:11:27;;;;;;;8.40;4.53;;;;;;;;;;5033518;28;20052;-46
2023/12/28 03:13:53;;;;;;;9.15;5.00;;;;;;;;;;5051377;28;20029;-47
2023/12/28 03:16:19;;;;;;;8.25;5.05;;;;;;;;;;5033588;28;20029;-49
2023/12/28 03:18:45;;;;;;;7.80;4.50;;;;;;;;;;5051600;28;20059;-48
2023/12/28 03:21:11;;;;;;;7.57;4.57;;;;;;;;;;5051210;28;20028;-46
2023/12/28 03:23:37;;;;;;;7.50;4.47;;;;;;;;;;5051423;28;20079;-48
2023/12/28 03:26:03;;;;;;;8.63;4.88;;;;;;;;;;5051332;28;20040;-45
2023/12/28 03:28:29;;;;;;;8.18;4.70;;;;;;;;;;5051317;28;20029;-49
2023/12/28 03:30:55;;;;;;;7.78;4.65;;;;;;;;;;5051046;28;20021;-49
2023/12/28 03:33:21;;;;;;;9.40;5.50;;;;;;;;;;5051083;28;20156;-47
2023/12/28 03:35:47;;;;;;;7.90;4.70;;;;;;;;;;5050998;28;20108;-47
2023/12/28 03:38:13;;;;;;;7.47;4.40;;;;;;;;;;5051265;28;20017;-52
2023/12/28 03:40:39;;;;;;;7.70;4.60;;;;;;;;;;5050823;28;20028;-45
2023/12/28 03:43:05;;;;;;;8.57;4.82;;;;;;;;;;5050696;28;20025;-48
2023/12/28 03:45:31;;;;;;;7.28;4.38;;;;;;;;;;5042151;28;20037;-48
2023/12/28 03:47:57;;;;;;;7.60;4.50;;;;;;;;;;5031026;28;20179;-47
2023/12/28 03:50:23;;;;;;;9.15;4.70;;;;;;;;;;5031042;28;20021;-47
2023/12/28 03:52:49;;;;;;;7.10;4.20;;;;;;;;;;5012823;28;20059;-45
2023/12/28 03:55:15;;;;;;;7.57;4.40;;;;;;;;;;5031278;28;20070;-46
2023/12/28 03:57:42;;;;;;;8.35;4.80;;;;;;;;;;5013628;28;20058;-46
2023/12/28 04:00:08;;;;;;;8.43;4.70;;;;;;;;;;5013741;28;20026;-45
2023/12/28 04:02:34;;;;;;;8.20;4.50;;;;;;;;;;5013577;28;20079;-47
2023/12/28 04:05:00;;;;;;;9.27;4.55;;;;;;;;;;5031041;28;20109;-45
2023/12/28 04:07:26;;;;;;;7.20;4.30;;;;;;;;;;5013518;28;20097;-46
2023/12/28 04:09:52;;;;;;;8.13;5.07;;;;;;;;;;5031020;28;20033;-45
2023/12/28 04:12:18;;;;;;;6.97;4.15;;;;;;;;;;5030635;28;20376;-48
2023/12/28 04:14:44;;;;;;;8.57;5.10;;;;;;;;;;5030430;28;20017;-48
2023/12/28 04:17:10;;;;;;;7.90;4.70;;;;;;;;;;5030537;28;20025;-52
2023/12/28 04:19:36;;;;;;;7.05;4.20;;;;;;;;;;5030499;28;20105;-50
2023/12/28 04:22:02;;;;;;;7.30;4.20;;;;;;;;;;5012613;28;20166;-45
2023/12/28 04:24:28;;;;;;;7.82;5.10;;;;;;;;;;5030316;28;20124;-48
2023/12/28 04:26:54;;;;;;;7.07;4.13;;;;;;;;;;5030299;28;20033;-47
2023/12/28 04:29:21;;;;;;;9.43;5.00;;;;;;;;;;5030287;28;20063;-47
2023/12/28 04:31:47;;;;;;;7.50;4.35;;;;;;;;;;5040393;28;20020;-51
2023/12/28 04:34:13;;;;;;;7.20;4.30;;;;;;;;;;5034994;28;20037;-52
2023/12/28 04:36:43;;;;;;;7.20;4.22;;;;;;;;;;5029939;28;20063;-48
2023/12/28 04:39:09;;;;;;;8.50;4.70;;;;;;;;;;5028655;28;20491;-49
2023/12/28 04:41:35;;;;;;;8.38;4.93;;;;;;;;;;5029633;28;20491;-48
2023/12/28 04:44:01;;;;;;;7.60;4.40;;;;;;;;;;5029606;28;20121;-49
2023/12/28 04:46:27;;;;;;;7.38;4.40;;;;;;;;;;5029730;28;20483;-48
2023/12/28 04:48:53;;;;;;;8.20;4.78;;;;;;;;;;5029741;28;20105;-46
2023/12/28 04:51:19;;;;;;;7.60;4.50;;;;;;;;;;5029767;28;20025;-48
2023/12/28 04:53:45;;;;;;;7.60;4.40;;;;;;;;;;5029966;28;20391;-48
2023/12/28 04:56:11;;;;;;;7.53;4.40;;;;;;;;;;5028652;28;20029;-51
2023/12/28 04:58:37;;;;;;;7.40;4.30;;;;;;;;;;5029913;28;20029;-51
2023/12/28 05:01:03;;;;;;;7.95;4.60;;;;;;;;;;5029697;28;20395;-46
2023/12/28 05:03:29;;;;;;;7.95;4.60;;;;;;;;;;5029718;28;20735;-47
2023/12/28 05:05:55;;;;;;;8.63;4.80;;;;;;;;;;5032340;28;20033;-50
2023/12/28 05:08:21;;;;;;;8.48;4.72;;;;;;;;;;5033863;28;20021;-51
2023/12/28 05:10:47;;;;;;;8.18;4.72;;;;;;;;;;5033608;28;20081;-47
2023/12/28 05:13:13;;;;;;;7.82;4.65;;;;;;;;;;5033570;28;20022;-49
2023/12/28 05:15:39;;;;;;;8.40;5.10;;;;;;;;;;5032583;28;20487;-49
2023/12/28 05:18:07;;;;;;;8.65;4.88;;;;;;;;;;5033657;28;20025;-49
2023/12/28 05:20:33;;;;;;;8.20;4.80;;;;;;;;;;5033835;28;20025;-48
2023/12/28 05:22:59;;;;;;;7.85;4.60;;;;;;;;;;5033624;28;20391;-50
2023/12/28 05:25:25;;;;;;;7.90;4.70;;;;;;;;;;5033778;28;20030;-50
2023/12/28 05:27:51;;;;;;;7.97;4.68;;;;;;;;;;5033379;28;20029;-49
2023/12/28 05:30:17;;;;;;;7.78;4.55;;;;;;;;;;5033383;28;20486;-47
2023/12/28 05:32:43;;;;;;;8.38;4.93;;;;;;;;;;5032984;28;20049;-47
2023/12/28 05:35:08;;;;;;;8.15;4.80;;;;;;;;;;5033229;28;20028;-50
2023/12/28 05:37:35;;;;;;;7.90;4.70;;;;;;;;;;5033461;28;20104;-52
2023/12/28 05:40:01;;;;;;;10.27;5.65;;;;;;;;;;5033419;28;20025;-47
2023/12/28 05:42:27;;;;;;;8.55;5.05;;;;;;;;;;5031523;28;20021;-51
2023/12/28 05:44:53;;;;;;;8.98;5.30;;;;;;;;;;5032742;28;20040;-50
2023/12/28 05:47:19;;;;;;;9.27;5.50;;;;;;;;;;5032936;28;20017;-50
2023/12/28 05:49:45;;;;;;;8.48;4.90;;;;;;;;;;5031825;28;20490;-51
2023/12/28 05:52:11;;;;;;;9.82;5.40;;;;;;;;;;5041548;28;20021;-52
2023/12/28 05:54:37;;;;;;;8.15;4.82;;;;;;;;;;5029727;28;20572;-47
2023/12/28 05:57:03;;;;;;;9.43;5.40;;;;;;;;;;5053050;28;20029;-48
2023/12/28 05:59:29;;;;;;;9.27;5.50;;;;;;;;;;5046472;28;20021;-50
2023/12/28 06:01:55;;;;;;;8.80;5.20;;;;;;;;;;5035307;28;20437;-47
2023/12/28 06:04:21;;;;;;;8.82;5.05;;;;;;;;;;5032810;28;20018;-47
2023/12/28 06:06:47;;;;;;;8.15;4.85;;;;;;;;;;5040634;28;20021;-47
2023/12/28 06:09:13;;;;;;;8.68;5.13;;;;;;;;;;5032910;28;20711;-49
2023/12/28 06:11:39;;;;;;;9.15;5.10;;;;;;;;;;5032484;28;20025;-46
2023/12/28 06:14:05;;;;;;;9.30;5.40;;;;;;;;;;5032431;28;20029;-47
2023/12/28 06:16:33;;;;;;;10.63;6.25;;;;;;;;;;5032435;28;20104;-46
2023/12/28 06:19:00;;;;;;;9.10;5.33;;;;;;;;;;5032338;28;20029;-49
2023/12/28 06:21:25;;;;;;;10.15;5.30;;;;;;;;;;5030921;28;20029;-50
2023/12/28 06:23:51;;;;;;;10.60;5.50;;;;;;;;;;5032620;28;20091;-50
2023/12/28 06:26:17;;;;;;;9.20;5.40;;;;;;;;;;5030926;28;20117;-47
2023/12/28 06:28:43;;;;;;;9.20;5.40;;;;;;;;;;5039549;28;20051;-50
2023/12/28 06:31:09;;;;;;;9.00;5.30;;;;;;;;;;5032960;28;20021;-49
2023/12/28 06:33:35;;;;;;;9.35;5.40;;;;;;;;;;5032212;28;20029;-49
2023/12/28 06:36:07;;;;;;;8.45;5.03;;;;;;;;;;5032387;28;20036;-46
2023/12/28 06:38:33;;;;;;;9.35;5.38;;;;;;;;;;5032302;28;20492;-48
2023/12/28 06:41:00;;;;;;;8.55;5.07;;;;;;;;;;5032075;28;20528;-48
2023/12/28 06:43:26;;;;;;;8.90;5.25;;;;;;;;;;5053376;23;20029;-50
2023/12/28 06:45:52;;;;;;;9.25;5.60;;;;;;;;;;5051088;28;20043;-52
2023/12/28 06:48:18;;;;;;;9.00;5.30;;;;;;;;;;5052124;28;20020;-50
2023/12/28 06:50:44;;;;;;;8.93;5.30;;;;;;;;;;5053306;28;20013;-52
2023/12/28 06:53:10;;;;;;;9.68;5.55;;;;;;;;;;5052332;28;20073;-51
2023/12/28 06:55:36;;;;;;;10.35;5.60;;;;;;;;;;5033187;28;20026;-51
2023/12/28 06:58:03;;;;;;;8.98;5.30;;;;;;;;;;5033121;28;20036;-49
2023/12/28 07:00:29;;;;;;;8.85;5.20;;;;;;;;;;5032956;28;20033;-47
2023/12/28 07:02:55;;;;;;;10.45;5.95;;;;;;;;;;5022380;28;20035;-48
2023/12/28 07:05:21;;;;;;;8.93;5.30;;;;;;;;;;5044072;28;20115;-50
2023/12/28 07:07:47;;;;;;;9.32;5.47;;;;;;;;;;5033765;28;20487;-52
2023/12/28 07:10:13;;;;;;;11.63;6.82;;;;;;;;;;5051729;28;20048;-47
2023/12/28 07:12:39;;;;;;;9.10;5.35;;;;;;;;;;5033506;28;20095;-45
2023/12/28 07:15:05;;;;;;;10.25;5.80;;;;;;;;;;5051461;28;20482;-50
2023/12/28 07:17:31;;;;;;;9.05;5.32;;;;;;;;;;5051424;28;20029;-47
2023/12/28 07:19:57;;;;;;;9.20;5.40;;;;;;;;;;5051250;28;20035;-50
2023/12/28 07:22:23;;;;;;;9.18;5.30;;;;;;;;;;5051250;28;20028;-49
2023/12/28 07:24:49;;;;;;;9.40;5.60;;;;;;;;;;5033439;28;20392;-49
2023/12/28 07:27:15;;;;;;;8.93;5.30;;;;;;;;;;5051328;28;20032;-48
2023/12/28 07:29:41;;;;;;;8.90;5.30;;;;;;;;;;5051832;28;20032;-48
2023/12/28 07:32:09;;;;;;;10.30;6.00;;;;;;;;;;5051267;28;20025;-50
2023/12/28 07:34:35;;;;;;;9.60;5.55;;;;;;;;;;5051121;28;20017;-50
2023/12/28 07:37:01;;;;;;;9.30;5.50;;;;;;;;;;5050806;28;20032;-53
2023/12/28 07:39:27;;;;;;;9.20;5.40;;;;;;;;;;5051074;28;20024;-50
2023/12/28 07:41:53;;;;;;;9.60;5.70;;;;;;;;;;5050918;28;20020;-50
2023/12/28 07:44:19;;;;;;;9.60;5.60;;;;;;;;;;5050671;28;20071;-49
2023/12/28 07:46:45;;;;;;;9.80;5.70;;;;;;;;;;5051142;28;20041;-49
2023/12/28 07:49:11;;;;;;;9.68;5.70;;;;;;;;;;5051223;28;20103;-48
2023/12/28 07:51:37;;;;;;;10.65;6.60;;;;;;;;;;5032921;28;20048;-48
2023/12/28 07:54:03;;;;;;;8.80;5.22;;;;;;;;;;5033253;28;20024;-49
2023/12/28 07:56:29;;;;;;;10.65;6.65;;;;;;;;;;5051191;28;20490;-47
2023/12/28 07:58:55;;;;;;;9.90;5.70;;;;;;;;;;5051197;28;20047;-50
2023/12/28 08:01:22;;;;;;;9.73;5.70;;;;;;;;;;5050688;28;20110;-49
2023/12/28 08:03:48;;;;;;;10.00;5.75;;;;;;;;;;5050469;28;20475;-50
2023/12/28 08:06:14;;;;;;;9.55;5.53;;;;;;;;;;5032736;28;20047;-49
2023/12/28 08:08:40;;;;;;;9.43;5.53;;;;;;;;;;5050450;28;20100;-47
2023/12/28 08:11:06;;;;;;;9.05;5.35;;;;;;;;;;5050320;28;20025;-49
2023/12/28 08:13:32;;;;;;;9.38;5.50;;;;;;;;;;5032703;28;20024;-49
2023/12/28 08:15:58;;;;;;;9.80;5.80;;;;;;;;;;5032672;28;20025;-49
2023/12/28 08:18:24;;;;;;;9.77;5.72;;;;;;;;;;5032817;28;20029;-46
2023/12/28 08:20:50;;;;;;;10.13;5.63;;;;;;;;;;5050279;28;20079;-50
2023/12/28 08:23:16;;;;;;;11.10;6.95;;;;;;;;;;5032398;28;20025;-47
2023/12/28 08:25:42;;;;;;;10.40;6.00;;;;;;;;;;5050355;28;20035;-51
2023/12/28 08:28:08;;;;;;;10.70;6.28;;;;;;;;;;5050148;28;20041;-49
2023/12/28 08:30:34;;;;;;;10.10;5.97;;;;;;;;;;5050256;28;20063;-49
2023/12/28 08:33:00;;;;;;;9.68;5.78;;;;;;;;;;5049911;28;20032;-49
2023/12/28 08:35:26;;;;;;;9.60;5.70;;;;;;;;;;5032073;28;20218;-51
2023/12/28 08:37:52;;;;;;;10.30;6.03;;;;;;;;;;5050137;28;20020;-50
2023/12/28 08:40:18;;;;;;;9.52;5.60;;;;;;;;;;5049386;28;20013;-50
2023/12/28 08:42:45;;;;;;;10.30;6.00;;;;;;;;;;5032290;28;20617;-49
2023/12/28 08:45:11;;;;;;;10.52;5.90;;;;;;;;;;5049877;28;20025;-52
2023/12/28 08:47:37;;;;;;;9.98;5.88;;;;;;;;;;5049805;28;20043;-53
2023/12/28 08:50:03;;;;;;;10.63;5.90;;;;;;;;;;5049906;28;20021;-50
2023/12/28 08:52:29;;;;;;;10.43;6.13;;;;;;;;;;5050009;28;20021;-52
2023/12/28 08:54:55;;;;;;;10.25;6.03;;;;;;;;;;5049651;28;20055;-52
2023/12/28 08:57:21;;;;;;;9.88;5.80;;;;;;;;;;5014440;28;20215;-49
2023/12/28 08:59:47;;;;;;;10.82;6.32;;;;;;;;;;5047517;28;20421;-49
2023/12/28 09:02:13;;;;;;;10.15;5.93;;;;;;;;;;5030135;28;20032;-49
2023/12/28 09:04:39;;;;;;;10.20;6.15;;;;;;;;;;5036732;28;20056;-52
2023/12/28 09:07:05;;;;;;;11.07;6.50;;;;;;;;;;5049994;28;20435;-54
2023/12/28 09:09:31;;;;;;;10.30;6.10;;;;;;;;;;5049901;28;20022;-55
2023/12/28 09:11:57;;;;;;;11.00;6.30;;;;;;;;;;5049791;28;20021;-49
2023/12/28 09:14:23;;;;;;;10.88;6.07;;;;;;;;;;5032991;28;20648;-54
2023/12/28 09:16:49;;;;;;;10.90;6.40;;;;;;;;;;5032141;28;20062;-50
2023/12/28 09:19:15;;;;;;;11.40;6.95;;;;;;;;;;5029497;28;20079;-52
2023/12/28 09:21:41;;;;;;;10.55;6.18;;;;;;;;;;5029532;28;20091;-48
2023/12/28 09:24:07;;;;;;;16.98;6.30;;;;;;;;;;5010416;28;20030;-49
2023/12/28 09:26:34;;;;;;;11.02;6.40;;;;;;;;;;5029398;28;20101;-49
2023/12/28 09:29:00;;;;;;;10.07;5.97;;;;;;;;;;5009566;28;20403;-49
2023/12/28 09:31:26;;;;;;;10.23;5.82;;;;;;;;;;5020089;28;20095;-51
2023/12/28 09:33:52;;;;;;;9.88;5.80;;;;;;;;;;5009690;28;20022;-50
2023/12/28 09:36:18;;;;;;;10.95;6.15;;;;;;;;;;5008608;28;20026;-56
2023/12/28 09:38:45;;;;;;;12.55;7.57;;;;;;;;;;5025223;28;20105;-55
2023/12/28 09:41:15;;;;;;;10.23;6.03;;;;;;;;;;5029128;28;20047;-50
2023/12/28 09:44:01;;;;;;;10.90;6.13;;;;;;;;;;5029014;28;20030;-52
2023/12/28 09:46:27;;;;;;;9.85;5.80;;;;;;;;;;5028846;28;20100;-52
2023/12/28 09:48:56;;;;;;;10.10;5.90;;;;;;;;;;5008043;28;20030;-52
2023/12/28 09:51:21;;;;;;;;;;;;;;;;;;5031045;28;20039;-55
2023/12/28 09:53:48;;;;;;;9.98;5.90;;;;;;;;;;5019927;28;19912;-53
2023/12/28 09:56:14;;;;;;;13.73;6.43;;;;;;;;;;5051799;28;20027;-54
2023/12/28 09:58:40;;;;;;;10.80;6.30;;;;;;;;;;5020213;28;20344;-54
2023/12/28 10:01:07;;;;;;;10.60;6.20;;;;;;;;;;5012953;28;20030;-53
2023/12/28 10:03:33;;;;;;;15.95;6.82;;;;;;;;;;5013026;28;20037;-52
2023/12/28 10:05:59;;;;;;;10.75;6.30;;;;;;;;;;5013250;28;20030;-51
2023/12/28 10:08:25;;;;;;;12.23;7.03;;;;;;;;;;5013089;28;20033;-52
2023/12/28 10:10:53;;;;;;;12.07;7.32;;;;;;;;;;5012984;28;20100;-53
2023/12/28 10:13:20;;;;;;;11.00;6.40;;;;;;;;;;4995269;28;20022;-52
2023/12/28 10:15:46;;;;;;;10.70;6.20;;;;;;;;;;4995707;28;20079;-51
2023/12/28 10:18:12;;;;;;;11.27;6.55;;;;;;;;;;4995409;28;20037;-51
2023/12/28 10:20:38;;;;;;;11.00;6.40;;;;;;;;;;5012966;28;20104;-56
2023/12/28 10:23:04;;;;;;;12.35;7.32;;;;;;;;;;4995543;28;20427;-52
2023/12/28 10:25:31;;;;;;;15.70;6.70;;;;;;;;;;5025484;28;20063;-48
2023/12/28 10:27:57;;;;;;;10.90;6.25;;;;;;;;;;5034222;28;20463;-51
2023/12/28 10:30:23;;;;;;;11.63;8.30;;;;;;;;;;5052431;28;20056;-53
2023/12/28 10:32:49;;;;;;;11.57;6.82;;;;;;;;;;5035149;28;20145;-51
2023/12/28 10:35:15;;;;;;;15.63;7.60;;;;;;;;;;5014258;28;20041;-50
2023/12/28 10:37:42;;;;;;;11.38;6.68;;;;;;;;;;5032023;28;20064;-51
2023/12/28 10:40:12;;;;;;;10.85;6.25;;;;;;;;;;5014031;28;20053;-51
2023/12/28 10:42:46;;;;;;;11.30;6.55;;;;;;;;;;5031738;28;20029;-52
2023/12/28 10:45:13;;;;;;;13.48;6.60;;;;;;;;;;5032191;28;20033;-49
2023/12/28 10:47:44;;;;;;;13.98;8.40;;;;;;;;;;5031878;28;20026;-50
2023/12/28 10:50:11;;;;;;;11.60;6.60;;;;;;;;;;5031892;28;20101;-49
2023/12/28 10:52:37;;;;;;;11.60;6.60;;;;;;;;;;5031464;28;20104;-48
2023/12/28 10:55:26;;;;;;;10.55;6.20;;;;;;;;;;5031627;28;20022;-54
2023/12/28 10:57:58;;;;;;;11.13;6.40;;;;;;;;;;5031842;28;20029;-50
2023/12/28 11:00:29;;;;;;;11.18;6.57;;;;;;;;;;5013859;28;20037;-48
2023/12/28 11:02:57;;;;;;;11.23;6.50;;;;;;;;;;5030664;28;20025;-56
2023/12/28 11:05:23;;;;;;;11.32;6.70;;;;;;;;;;5032582;28;20052;-50
2023/12/28 11:07:56;;;;;;;10.93;6.50;;;;;;;;;;5032912;28;20032;-53
2023/12/28 11:10:24;;;;;;;11.82;7.28;;;;;;;;;;5015017;28;20057;-52
2023/12/28 11:12:53;;;;;;;11.80;7.10;;;;;;;;;;5031254;28;20026;-53
2023/12/28 11:15:19;;;;;;;35.97;8.70;;;;;;;;;;5031060;28;20382;-50
2023/12/28 11:17:45;;;;;;;12.95;6.90;;;;;;;;;;5013035;28;20357;-48
2023/12/28 11:20:12;;;;;;;11.55;6.78;;;;;;;;;;5013433;28;20021;-50
2023/12/28 11:22:38;;;;;;;13.40;7.05;;;;;;;;;;5030776;28;20128;-50
2023/12/28 11:25:05;;;;;;;12.25;7.10;;;;;;;;;;5030845;28;20183;-54
2023/12/28 11:27:37;;;;;;;11.52;6.72;;;;;;;;;;5031050;28;20157;-52
2023/12/28 11:30:06;;;;;;;10.73;6.30;;;;;;;;;;5031341;28;20028;-52
2023/12/28 11:32:39;;;;;;;11.00;6.43;;;;;;;;;;5031029;28;20314;-51
2023/12/28 11:35:10;;;;;;;11.60;6.85;;;;;;;;;;5031238;28;20029;-48
2023/12/28 11:37:36;;;;;;;11.10;6.55;;;;;;;;;;5013296;28;20121;-48
2023/12/28 11:40:17;;;;;;;10.52;6.20;;;;;;;;;;5030958;28;20025;-49
2023/12/28 11:42:53;;;;;;;11.00;6.38;;;;;;;;;;5031185;28;20057;-48
2023/12/28 11:45:20;;;;;;;11.05;6.45;;;;;;;;;;5031017;28;20045;-51
2023/12/28 11:47:46;;;;;;;10.88;6.35;;;;;;;;;;5030790;28;20100;-53
2023/12/28 11:50:12;;;;;;;11.15;6.53;;;;;;;;;;5013130;28;20018;-48
2023/12/28 11:52:38;;;;;;;11.18;6.75;;;;;;;;;;5030728;28;20033;-54
2023/12/28 11:55:05;;;;;;;11.25;6.60;;;;;;;;;;5012830;28;20463;-50
2023/12/28 11:57:31;;;;;;;10.95;6.47;;;;;;;;;;5030984;28;20052;-47
2023/12/28 11:59:58;;;;;;;11.20;6.60;;;;;;;;;;5012389;28;20061;-52
2023/12/28 12:02:25;;;;;;;11.35;6.50;;;;;;;;;;5030597;28;20021;-48
2023/12/28 12:04:51;;;;;;;11.82;7.10;;;;;;;;;;5030430;28;20044;-52
2023/12/28 12:07:17;;;;;;;15.30;12.27;;;;;;;;;;5030386;28;20029;-47
2023/12/28 12:09:44;;;;;;;12.55;7.20;;;;;;;;;;5030251;28;20022;-50
2023/12/28 12:12:10;;;;;;;11.73;6.90;;;;;;;;;;5012584;28;20113;-52
2023/12/28 12:14:36;;;;;;;11.50;6.70;;;;;;;;;;5030200;28;20072;-51
2023/12/28 12:17:02;;;;;;;19.13;7.57;;;;;;;;;;5030260;28;20142;-49
2023/12/28 12:19:29;;;;;;;39.97;9.57;;;;;;;;;;5030515;28;20067;-47
2023/12/28 12:21:55;;;;;;;12.70;6.68;;;;;;;;;;5029930;28;20041;-52
2023/12/28 12:24:22;;;;;;;11.80;6.90;;;;;;;;;;5030097;28;20053;-46
2023/12/28 12:26:48;;;;;;;11.90;6.40;;;;;;;;;;5012335;28;20388;-52
2023/12/28 12:29:15;;;;;;;11.55;6.68;;;;;;;;;;5030261;28;20538;-50
2023/12/28 12:31:42;;;;;;;10.95;6.50;;;;;;;;;;5012072;28;20103;-49
2023/12/28 12:34:09;;;;;;;11.18;6.53;;;;;;;;;;5012282;28;20577;-52
2023/12/28 12:36:35;;;;;;;10.57;6.20;;;;;;;;;;5030277;28;20038;-52
2023/12/28 12:39:05;;;;;;;12.20;6.90;;;;;;;;;;5012096;28;20128;-50
2023/12/28 12:41:31;;;;;;;11.40;6.78;;;;;;;;;;5034574;28;20636;-46
2023/12/28 12:46:28;;;;;;;11.18;6.57;;;;;;;;;;5025608;28;20456;-52
2023/12/28 12:48:57;;;;;;;12.00;7.05;;;;;;;;;;5028870;28;20029;-55
2023/12/28 12:51:24;;;;;;;11.57;6.80;;;;;;;;;;5028202;28;20052;-54
2023/12/28 12:53:50;;;;;;;11.25;6.57;;;;;;;;;;5010333;28;20030;-55
2023/12/28 12:56:17;;;;;;;12.50;6.63;;;;;;;;;;5026354;28;20030;-54
2023/12/28 12:58:44;;;;;;;10.70;6.30;;;;;;;;;;5026596;28;20079;-54
2023/12/28 13:01:11;;;;;;;10.88;6.57;;;;;;;;;;5017178;28;20084;-53
2023/12/28 13:03:38;;;;;;;11.52;6.78;;;;;;;;;;5001745;28;20410;-52
2023/12/28 13:06:04;;;;;;;10.65;6.28;;;;;;;;;;5024038;28;20184;-55
2023/12/28 13:08:30;;;;;;;11.07;6.55;;;;;;;;;;5027112;28;20116;-54
2023/12/28 13:10:56;;;;;;;14.68;9.07;;;;;;;;;;5006866;28;20034;-55
2023/12/28 13:13:22;;;;;;;11.82;6.93;;;;;;;;;;5028209;28;20375;-55
2023/12/28 13:15:48;;;;;;;20.25;7.30;;;;;;;;;;5007047;28;20061;-54
2023/12/28 13:18:14;;;;;;;11.35;6.60;;;;;;;;;;5027298;28;20689;-56
2023/12/28 13:20:42;;;;;;;11.95;7.10;;;;;;;;;;5028115;28;20036;-54
2023/12/28 13:23:08;;;;;;;11.45;6.65;;;;;;;;;;5027886;28;20026;-55
2023/12/28 13:25:34;;;;;;;14.20;6.97;;;;;;;;;;5028753;28;20120;-55
2023/12/28 13:28:00;;;;;;;11.40;6.70;;;;;;;;;;5031618;28;20094;-55
2023/12/28 13:30:29;;;;;;;11.23;6.55;;;;;;;;;;5014147;28;20398;-55
2023/12/28 13:32:59;;;;;;;10.45;6.20;;;;;;;;;;5023379;28;20184;-54
2023/12/28 13:35:25;;;;;;;10.52;6.20;;;;;;;;;;5011785;28;20464;-51
2023/12/28 13:37:51;;;;;;;11.02;6.47;;;;;;;;;;5011985;28;20035;-55
2023/12/28 13:40:17;;;;;;;10.80;6.32;;;;;;;;;;5011743;28;20463;-54
2023/12/28 13:42:43;;;;;;;11.07;6.50;;;;;;;;;;5011755;28;20062;-54
2023/12/28 13:45:09;;;;;;;11.32;6.70;;;;;;;;;;5011583;28;20050;-54
2023/12/28 13:47:35;;;;;;;10.77;6.38;;;;;;;;;;5012129;28;20034;-53
2023/12/28 13:50:00;;;;;;;11.73;6.80;;;;;;;;;;5011869;28;20035;-55
2023/12/28 13:52:27;;;;;;;12.43;7.40;;;;;;;;;;5012202;28;20060;-52
2023/12/28 13:54:53;;;;;;;12.30;7.30;;;;;;;;;;5019378;28;20438;-54
2023/12/28 13:57:19;;;;;;;12.05;7.05;;;;;;;;;;5005808;28;20017;-50
2023/12/28 13:59:45;;;;;;;11.98;6.85;;;;;;;;;;5031564;28;20053;-54
2023/12/28 14:02:11;;;;;;;11.80;6.75;;;;;;;;;;5031118;28;20162;-54
2023/12/28 14:04:37;;;;;;;11.30;7.00;;;;;;;;;;5025485;28;20038;-53
2023/12/28 14:07:03;;;;;;;10.98;6.40;;;;;;;;;;5009147;28;20092;-49
2023/12/28 14:09:30;;;;;;;10.80;6.50;;;;;;;;;;5031289;28;20022;-51
2023/12/28 14:11:56;;;;;;;11.68;8.25;;;;;;;;;;5031054;28;20021;-50
2023/12/28 14:14:22;;;;;;;11.10;6.50;;;;;;;;;;5030975;28;20036;-49
2023/12/28 14:16:48;;;;;;;12.02;6.80;;;;;;;;;;5031032;28;20025;-53
2023/12/28 14:19:14;;;;;;;13.07;7.85;;;;;;;;;;5030989;28;20033;-57
2023/12/28 14:21:40;;;;;;;11.40;6.63;;;;;;;;;;5031055;28;20580;-57
2023/12/28 14:24:06;;;;;;;10.95;6.45;;;;;;;;;;5030406;28;20025;-53
2023/12/28 14:26:33;;;;;;;10.43;6.10;;;;;;;;;;5030777;28;20484;-54
2023/12/28 14:29:03;;;;;;;13.77;7.55;;;;;;;;;;5030945;28;20032;-55
2023/12/28 14:31:29;;;;;;;11.10;6.45;;;;;;;;;;5031010;28;20013;-53
2023/12/28 14:33:55;;;;;;;11.48;6.65;;;;;;;;;;5030790;28;20487;-53